Time;durP1;ratioP1;P1;durP2;ratioP2;P2;SDS_P1;SDS_P2;PMS_P1;PMS_P2;Temp;Humidity;BMP_temperature;BMP_pressure;BME280_temperature;BME280_humidity;BME280_pressure;Samples;Min_cycle;Max_cycle;Signal;HPM_P1;HPM_P2
2022/06/11 00:01:44;;;;;;;9.40;2.35;;;;;;;13.88;100.00;97177.09;4997277;28;20045;-71
2022/06/11 00:04:14;;;;;;;8.63;2.40;;;;;;;13.79;100.00;97175.91;4997131;28;20041;-72
2022/06/11 00:06:44;;;;;;;8.25;2.60;;;;;;;13.71;100.00;97178.25;5001767;28;20053;-73
2022/06/11 00:09:11;;;;;;;10.75;2.50;;;;;;;13.62;100.00;97184.06;4995784;28;20529;-72
2022/06/11 00:11:38;;;;;;;12.15;2.20;;;;;;;13.53;100.00;97184.72;5000296;28;20101;-72
2022/06/11 00:14:04;;;;;;;10.65;2.67;;;;;;;13.63;100.00;97191.06;4995300;28;20570;-74
2022/06/11 00:16:29;;;;;;;7.40;2.70;;;;;;;13.62;100.00;97194.00;4997822;28;20034;-72
2022/06/11 00:18:57;;;;;;;8.80;2.20;;;;;;;13.65;100.00;97194.31;4998079;28;20034;-71
2022/06/11 00:21:26;;;;;;;9.30;2.17;;;;;;;13.61;100.00;97186.97;4984482;28;20050;-71
2022/06/11 00:23:52;;;;;;;9.38;2.75;;;;;;;13.56;100.00;97185.06;4997840;28;20121;-72
2022/06/11 00:26:18;;;;;;;8.88;2.33;;;;;;;13.53;100.00;97190.09;4998647;28;20038;-71
2022/06/11 00:28:44;;;;;;;9.27;2.20;;;;;;;13.45;100.00;97191.34;4995527;28;20561;-73
2022/06/11 00:31:10;;;;;;;9.13;2.15;;;;;;;13.45;100.00;97188.66;4997255;28;20034;-72
2022/06/11 00:33:36;;;;;;;7.97;1.92;;;;;;;13.43;100.00;97179.22;4995742;28;20052;-71
2022/06/11 00:36:05;;;;;;;10.48;2.30;;;;;;;13.44;100.00;97188.91;4996725;28;20125;-73
2022/06/11 00:38:31;;;;;;;8.32;2.10;;;;;;;13.47;100.00;97185.75;4978480;28;20057;-72
2022/06/11 00:40:56;;;;;;;7.90;2.13;;;;;;;13.45;100.00;97183.28;4998690;28;20648;-73
2022/06/11 00:43:25;;;;;;;7.95;2.63;;;;;;;13.28;100.00;97177.13;4974803;28;20503;-71
2022/06/11 00:46:12;;;;;;;4.88;1.88;;;;;;;13.27;100.00;97175.53;4993624;28;20037;-72
2022/06/11 00:48:41;;;;;;;7.07;2.60;;;;;;;13.24;100.00;97173.34;4996156;28;20073;-72
2022/06/11 00:51:17;;;;;;;10.60;2.47;;;;;;;13.29;100.00;97168.81;4999186;28;20072;-73
2022/06/11 00:53:50;;;;;;;10.95;2.42;;;;;;;13.31;100.00;97171.28;4997864;28;20042;-71
2022/06/11 00:56:25;;;;;;;8.02;2.42;;;;;;;13.28;100.00;97166.38;4998072;28;20131;-74
2022/06/11 00:58:54;;;;;;;8.23;2.55;;;;;;;13.30;100.00;97175.81;4995032;28;20334;-72
2022/06/11 01:01:22;;;;;;;6.53;2.20;;;;;;;13.30;100.00;97169.63;4996111;28;20050;-72
2022/06/11 01:03:51;;;;;;;10.93;2.47;;;;;;;13.32;100.00;97173.72;4998122;28;20042;-72
2022/06/11 01:06:37;;;;;;;7.35;2.45;;;;;;;13.31;100.00;97171.28;4998703;28;20087;-72
2022/06/11 01:09:19;;;;;;;11.07;2.53;;;;;;;13.27;100.00;97172.81;4995862;28;20053;-72
2022/06/11 01:11:59;;;;;;;11.00;2.30;;;;;;;13.25;100.00;97165.03;4996016;28;20323;-72
2022/06/11 01:14:43;;;;;;;6.77;2.30;;;;;;;13.18;100.00;97172.41;4994920;28;20045;-74
2022/06/11 01:17:40;;;;;;;8.52;2.50;;;;;;;13.17;100.00;97164.59;4995215;28;20046;-71
2022/06/11 01:20:21;;;;;;;11.00;2.70;;;;;;;13.11;100.00;97161.84;4993485;28;20505;-72
2022/06/11 01:23:10;;;;;;;7.53;2.15;;;;;;;13.08;100.00;97173.09;4997063;28;20041;-73
2022/06/11 01:25:53;;;;;;;7.75;2.70;;;;;;;13.10;100.00;97170.97;4997255;28;20042;-71
2022/06/11 01:28:38;;;;;;;13.02;2.60;;;;;;;13.18;100.00;97172.41;4997304;28;20169;-72
2022/06/11 01:31:12;;;;;;;8.68;2.58;;;;;;;13.24;100.00;97173.34;4995798;28;20046;-74
2022/06/11 01:34:00;;;;;;;7.00;2.70;;;;;;;13.28;100.00;97166.38;4993498;28;20041;-72
2022/06/11 01:36:29;;;;;;;8.52;2.70;;;;;;;13.31;100.00;97165.91;4997519;28;20060;-73
2022/06/11 01:39:06;;;;;;;11.27;3.92;;;;;;;13.38;100.00;97163.81;4997151;28;20042;-72
2022/06/11 01:41:37;;;;;;;7.38;2.50;;;;;;;13.37;100.00;97168.38;4998918;28;20037;-73
2022/06/11 01:44:10;;;;;;;9.73;2.70;;;;;;;13.40;100.00;97166.28;4994967;28;20371;-72
2022/06/11 01:46:40;;;;;;;9.52;3.00;;;;;;;13.51;100.00;97165.34;4995709;28;20061;-72
2022/06/11 01:49:21;;;;;;;10.35;2.60;;;;;;;13.63;100.00;97164.16;4994707;28;20085;-72
2022/06/11 01:51:59;;;;;;;8.48;2.70;;;;;;;13.68;100.00;97149.16;4996157;28;20121;-74
2022/06/11 01:54:30;;;;;;;12.20;3.17;;;;;;;13.72;100.00;97163.72;4997316;28;20037;-72
2022/06/11 01:57:27;;;;;;;10.90;2.63;;;;;;;13.78;100.00;97160.84;4996591;28;20513;-73
2022/06/11 01:59:58;;;;;;;9.10;2.70;;;;;;;13.82;100.00;97151.19;4996151;28;20391;-73
2022/06/11 02:02:36;;;;;;;8.35;3.00;;;;;;;13.89;100.00;97161.75;4974857;28;20149;-73
2022/06/11 02:05:08;;;;;;;7.75;2.90;;;;;;;13.91;100.00;97165.00;4995581;28;20046;-73
2022/06/11 02:07:49;;;;;;;6.45;2.65;;;;;;;13.82;100.00;97167.34;4996937;28;20452;-72
2022/06/11 02:10:22;;;;;;;7.55;2.85;;;;;;;13.76;100.00;97162.97;4994943;28;20048;-73
2022/06/11 02:13:18;;;;;;;7.63;3.30;;;;;;;13.62;100.00;97167.13;4994544;28;20429;-72
2022/06/11 02:15:57;;;;;;;7.55;3.47;;;;;;;13.57;100.00;97162.47;4992811;28;20085;-71
2022/06/11 02:18:24;;;;;;;11.52;2.92;;;;;;;13.61;100.00;97171.66;4997348;28;20073;-71
2022/06/11 02:21:00;;;;;;;7.47;2.85;;;;;;;13.68;100.00;97155.34;4981613;28;20038;-72
2022/06/11 02:23:36;;;;;;;8.70;2.85;;;;;;;13.71;100.00;97157.53;4995827;28;20176;-72
2022/06/11 02:26:11;;;;;;;8.98;3.15;;;;;;;13.71;100.00;97164.78;4996650;28;20260;-72
2022/06/11 02:28:40;;;;;;;9.27;3.05;;;;;;;13.65;100.00;97156.66;4994445;28;20050;-72
2022/06/11 02:31:11;;;;;;;6.97;3.35;;;;;;;13.69;100.00;97161.53;4994488;28;20052;-72
2022/06/11 02:33:37;;;;;;;16.20;4.32;;;;;;;13.61;100.00;97160.91;4994479;28;20319;-74
2022/06/11 02:36:31;;;;;;;30.63;7.18;;;;;;;13.65;100.00;97167.41;4995811;28;20046;-72
2022/06/11 02:38:59;;;;;;;24.48;6.82;;;;;;;13.62;100.00;97172.50;4987038;28;20054;-71
2022/06/11 02:41:29;;;;;;;17.48;5.25;;;;;;;13.47;100.00;97167.72;4998167;28;20148;-72
2022/06/11 02:43:55;;;;;;;15.65;4.22;;;;;;;13.43;100.00;97169.28;4993068;28;20030;-72
2022/06/11 02:47:03;;;;;;;13.35;3.80;;;;;;;13.33;100.00;97179.91;4997438;28;20096;-74
2022/06/11 02:49:15;;;;;;;8.57;3.45;;;;;;;13.26;100.00;97179.28;4987903;28;20060;-72
2022/06/11 02:51:41;;;;;;;;;;;;;;;13.18;100.00;97179.66;4996183;28;20088;-72
2022/06/11 02:54:07;;;;;;;13.10;3.50;;;;;;;13.11;100.00;97183.34;4995120;28;20348;-71
2022/06/11 02:56:32;;;;;;;9.20;3.10;;;;;;;13.11;100.00;97180.66;4996341;28;20492;-74
2022/06/11 02:58:58;;;;;;;10.93;3.13;;;;;;;13.08;100.00;97188.41;4979642;28;20073;-73
2022/06/11 03:01:24;;;;;;;8.23;3.05;;;;;;;12.95;100.00;97184.16;4996265;28;20049;-74
2022/06/11 03:03:51;;;;;;;9.05;3.28;;;;;;;12.98;100.00;97189.03;4991247;28;20104;-74
2022/06/11 03:06:19;;;;;;;10.10;3.53;;;;;;;13.01;100.00;97190.44;4993892;28;20049;-72
2022/06/11 03:08:44;;;;;;;7.13;3.40;;;;;;;13.00;100.00;97197.69;4992313;28;20124;-71
2022/06/11 03:11:10;;;;;;;10.07;4.07;;;;;;;12.92;100.00;97195.41;4976210;28;20038;-72
2022/06/11 03:13:35;;;;;;;10.70;3.75;;;;;;;12.89;100.00;97198.56;4993968;28;20453;-71
2022/06/11 03:16:01;;;;;;;12.07;3.63;;;;;;;12.97;100.00;97192.78;4993116;28;20409;-72
2022/06/11 03:18:27;;;;;;;10.13;3.60;;;;;;;12.94;100.00;97189.78;4995449;28;20060;-71
2022/06/11 03:20:54;;;;;;;9.88;3.78;;;;;;;12.99;100.00;97190.66;4996310;28;20065;-74
2022/06/11 03:23:20;;;;;;;11.68;3.33;;;;;;;13.11;100.00;97190.59;4995129;28;20049;-72
2022/06/11 03:25:46;;;;;;;9.50;3.63;;;;;;;13.02;100.00;97186.69;4995884;28;20038;-71
2022/06/11 03:28:16;;;;;;;13.77;3.25;;;;;;;12.96;100.00;97191.16;4979345;28;20053;-71
2022/06/11 03:30:42;;;;;;;5.88;2.42;;;;;;;13.18;100.00;97195.78;4993265;28;20077;-73
2022/06/11 03:33:08;;;;;;;10.95;3.30;;;;;;;13.32;100.00;97179.09;4994907;28;20046;-73
2022/06/11 03:35:33;;;;;;;10.30;3.95;;;;;;;13.44;100.00;97187.03;4995448;28;20334;-71
2022/06/11 03:37:59;;;;;;;9.52;3.17;;;;;;;13.51;100.00;97187.66;4993571;28;20061;-71
2022/06/11 03:40:25;;;;;;;9.88;3.03;;;;;;;13.54;100.00;97187.19;4993096;28;20077;-71
2022/06/11 03:42:50;;;;;;;12.10;2.88;;;;;;;13.62;100.00;97186.75;4995285;28;20048;-71
2022/06/11 03:45:17;;;;;;;11.82;3.42;;;;;;;13.73;100.00;97184.19;4994479;28;20117;-72
2022/06/11 03:47:43;;;;;;;8.50;3.08;;;;;;;13.74;100.00;97183.09;4992662;28;20038;-71
2022/06/11 03:50:21;;;;;;;8.93;3.35;;;;;;;13.88;100.00;97185.16;4979093;28;20085;-71
2022/06/11 03:52:47;;;;;;;11.80;3.10;;;;;;;13.99;100.00;97186.09;4993734;28;20042;-72
2022/06/11 03:55:12;;;;;;;10.80;3.05;;;;;;;14.02;100.00;97182.91;4995490;28;20038;-71
2022/06/11 03:57:40;;;;;;;6.60;2.75;;;;;;;14.18;100.00;97190.06;4988645;28;20045;-71
2022/06/11 04:00:09;;;;;;;11.30;3.05;;;;;;;14.21;100.00;97186.88;4992795;28;20041;-71
2022/06/11 04:02:35;;;;;;;8.70;2.90;;;;;;;14.34;100.00;97198.31;4991986;28;20042;-71
2022/06/11 04:05:02;;;;;;;13.80;2.95;;;;;;;14.36;100.00;97188.09;4994018;28;20054;-71
2022/06/11 04:07:28;;;;;;;8.65;2.90;;;;;;;14.46;100.00;97194.41;4994908;28;20082;-72
2022/06/11 04:09:54;;;;;;;10.40;2.83;;;;;;;14.54;100.00;97195.81;4994382;28;20430;-73
2022/06/11 04:12:19;;;;;;;7.78;2.72;;;;;;;14.68;100.00;97201.59;4980883;28;20034;-72
2022/06/11 04:14:47;;;;;;;11.20;3.03;;;;;;;14.69;100.00;97201.34;4994488;28;20034;-72
2022/06/11 04:17:29;;;;;;;9.88;3.00;;;;;;;14.79;100.00;97197.13;4976021;28;20057;-74
2022/06/11 04:19:55;;;;;;;13.13;2.88;;;;;;;14.82;100.00;97200.09;4994563;28;20033;-74
2022/06/11 04:22:21;;;;;;;8.60;2.70;;;;;;;14.90;100.00;97198.81;4994632;28;20036;-73
2022/06/11 04:24:47;;;;;;;8.82;2.75;;;;;;;14.91;100.00;97206.63;4995271;28;20350;-72
2022/06/11 04:27:15;;;;;;;7.35;2.72;;;;;;;15.01;100.00;97208.59;4999077;28;20096;-73
2022/06/11 04:29:44;;;;;;;6.95;2.55;;;;;;;15.07;100.00;97204.88;4996772;28;20485;-74
2022/06/11 04:32:15;;;;;;;9.48;4.53;;;;;;;15.07;100.00;97204.88;4998777;28;20050;-71
2022/06/11 04:34:42;;;;;;;10.85;3.90;;;;;;;15.15;100.00;97211.66;4997112;28;20065;-71
2022/06/11 04:37:13;;;;;;;6.30;3.33;;;;;;;15.19;100.00;97205.50;4998406;28;20537;-71
2022/06/11 04:39:42;;;;;;;7.97;4.20;;;;;;;15.24;100.00;97200.13;4998071;28;20468;-73
2022/06/11 04:42:09;;;;;;;9.43;3.60;;;;;;;15.33;100.00;97208.56;4997661;28;20045;-73
2022/06/11 04:44:36;;;;;;;6.63;3.15;;;;;;;15.42;100.00;97208.88;4996963;28;20133;-75
2022/06/11 04:47:03;;;;;;;7.43;3.00;;;;;;;15.44;100.00;97206.72;4996947;28;20430;-72
2022/06/11 04:49:29;;;;;;;8.80;3.03;;;;;;;15.47;100.00;97212.41;4998333;28;20037;-71
2022/06/11 04:51:54;;;;;;;8.15;3.38;;;;;;;15.49;100.00;97204.06;4997596;28;20476;-73
2022/06/11 04:54:20;;;;;;;8.93;3.38;;;;;;;15.53;100.00;97208.66;4997135;28;20112;-72
2022/06/11 04:56:46;;;;;;;11.90;3.50;;;;;;;15.57;100.00;97209.78;4996540;28;20348;-72
2022/06/11 04:59:11;;;;;;;11.00;3.08;;;;;;;15.61;100.00;97212.78;4998096;28;20042;-72
2022/06/11 05:01:37;;;;;;;5.63;2.50;;;;;;;15.68;100.00;97216.06;4996444;28;20053;-73
2022/06/11 05:04:03;;;;;;;12.45;3.13;;;;;;;15.76;100.00;97225.53;4996251;28;20045;-72
2022/06/11 05:06:32;;;;;;;12.07;3.63;;;;;;;15.81;100.00;97212.09;4981464;28;20058;-72
2022/06/11 05:08:58;;;;;;;13.55;2.65;;;;;;;15.85;100.00;97216.66;4995829;28;20041;-74
2022/06/11 05:11:24;;;;;;;9.60;2.83;;;;;;;15.88;100.00;97221.56;4997667;28;20511;-75
2022/06/11 05:13:49;;;;;;;8.40;3.17;;;;;;;15.91;100.00;97209.41;4996180;28;20034;-74
2022/06/11 05:16:18;;;;;;;10.05;2.78;;;;;;;15.95;100.00;97220.47;4997033;28;20041;-72
2022/06/11 05:18:44;;;;;;;6.85;2.60;;;;;;;15.95;100.00;97215.09;4996723;28;20481;-70
2022/06/11 05:21:10;;;;;;;22.90;3.22;;;;;;;15.91;100.00;97203.22;4995385;28;20054;-71
2022/06/11 05:23:35;;;;;;;6.97;2.65;;;;;;;16.10;100.00;97212.44;4996007;28;20065;-71
2022/06/11 05:26:02;;;;;;;9.43;3.17;;;;;;;16.18;100.00;97203.81;4997085;28;20045;-71
2022/06/11 05:28:30;;;;;;;9.82;2.53;;;;;;;16.21;100.00;97207.91;4997314;28;20549;-72
2022/06/11 05:30:57;;;;;;;10.48;2.42;;;;;;;16.28;100.00;97211.16;4997394;28;20046;-72
2022/06/11 05:33:24;;;;;;;7.00;2.58;;;;;;;16.25;100.00;97211.66;4996263;28;20097;-74
2022/06/11 05:35:54;;;;;;;11.60;2.90;;;;;;;16.33;100.00;97217.34;4994297;28;20037;-71
2022/06/11 05:38:24;;;;;;;10.60;3.22;;;;;;;16.35;100.00;97219.81;4997040;28;20084;-71
2022/06/11 05:40:51;;;;;;;15.00;2.93;;;;;;;16.43;100.00;97225.50;4998163;28;20496;-71
2022/06/11 05:43:16;;;;;;;8.60;3.10;;;;;;;16.44;100.00;97229.81;4997367;28;20680;-70
2022/06/11 05:45:57;;;;;;;7.95;3.65;;;;;;;16.46;100.00;97221.44;4996510;28;20113;-72
2022/06/11 05:48:28;;;;;;;10.93;4.00;;;;;;;16.51;100.00;97229.56;4980496;28;20136;-72
2022/06/11 05:50:55;;;;;;;;;;;;;;;16.56;100.00;97224.16;4982396;28;20034;-73
2022/06/11 05:53:23;;;;;;;10.90;3.35;;;;;;;16.66;100.00;97220.69;4997072;28;19910;-72
2022/06/11 05:55:49;;;;;;;12.77;3.30;;;;;;;16.66;100.00;97226.91;4995715;28;20074;-74
2022/06/11 05:58:43;;;;;;;7.88;3.00;;;;;;;16.69;100.00;97220.16;4996617;28;20093;-72
2022/06/11 06:01:11;;;;;;;7.65;2.92;;;;;;;16.88;100.00;97223.94;4995917;28;20496;-72
2022/06/11 06:03:36;;;;;;;8.18;3.42;;;;;;;17.02;100.00;97226.91;4999663;28;20041;-72
2022/06/11 06:06:02;;;;;;;8.27;3.05;;;;;;;17.16;100.00;97225.28;4994887;28;20046;-72
2022/06/11 06:08:28;;;;;;;9.80;3.15;;;;;;;17.29;100.00;97226.66;4994376;28;20096;-72
2022/06/11 06:10:53;;;;;;;6.93;3.40;;;;;;;17.43;100.00;97225.00;4994433;28;20054;-74
2022/06/11 06:16:03;;;;;;;10.02;3.60;;;;;;;17.78;100.00;97223.31;4996471;28;20200;-72
2022/06/11 06:18:28;;;;;;;6.22;3.08;;;;;;;17.75;100.00;97223.88;4991837;28;20061;-74
2022/06/11 06:20:54;;;;;;;11.23;2.65;;;;;;;17.83;100.00;97220.59;4997100;28;20437;-72
2022/06/11 06:23:19;;;;;;;13.18;4.28;;;;;;;17.89;100.00;97230.28;4997787;28;20406;-72
2022/06/11 06:25:45;;;;;;;11.40;2.50;;;;;;;18.07;100.00;97229.69;4996239;28;20037;-74
2022/06/11 06:28:10;;;;;;;13.70;2.40;;;;;;;18.04;100.00;97232.13;4995810;28;20461;-72
2022/06/11 06:30:36;;;;;;;9.45;3.08;;;;;;;18.12;100.00;97230.75;4996137;28;20053;-73
2022/06/11 06:33:01;;;;;;;9.70;2.50;;;;;;;18.21;100.00;97220.94;4995924;28;20038;-72
2022/06/11 06:35:27;;;;;;;12.60;2.72;;;;;;;18.25;100.00;97224.72;4993857;28;20121;-72
2022/06/11 06:37:52;;;;;;;12.23;2.60;;;;;;;18.45;100.00;97224.63;4995157;28;20053;-72
2022/06/11 06:40:18;;;;;;;18.75;3.22;;;;;;;18.63;100.00;97228.56;4993897;28;20481;-72
2022/06/11 06:42:44;;;;;;;9.15;2.50;;;;;;;18.76;100.00;97224.47;4996168;28;20445;-74
2022/06/11 06:45:09;;;;;;;11.35;2.97;;;;;;;18.59;100.00;97225.59;4996598;28;20117;-72
2022/06/11 06:47:35;;;;;;;11.32;3.22;;;;;;;18.76;100.00;97227.97;4994955;28;20401;-73
2022/06/11 06:50:00;;;;;;;11.27;2.78;;;;;;;18.92;100.00;97234.09;4992609;28;20050;-73
2022/06/11 06:52:26;;;;;;;8.55;2.42;;;;;;;19.01;100.00;97235.09;4995927;28;20045;-72
2022/06/11 06:54:52;;;;;;;10.93;2.72;;;;;;;18.91;100.00;97230.59;4996416;28;20052;-73
2022/06/11 06:57:17;;;;;;;6.90;2.28;;;;;;;19.01;100.00;97242.44;4994044;28;20600;-75
2022/06/11 06:59:43;;;;;;;12.05;2.85;;;;;;;19.14;100.00;97236.34;4994309;28;20069;-72
2022/06/11 07:02:10;;;;;;;9.43;2.58;;;;;;;19.35;100.00;97242.41;4993856;28;20255;-75
2022/06/11 07:04:36;;;;;;;9.82;2.95;;;;;;;19.34;100.00;97243.50;4994988;28;20041;-72
2022/06/11 07:07:01;;;;;;;10.65;3.13;;;;;;;19.43;100.00;97239.88;4995184;28;20417;-72
2022/06/11 07:09:27;;;;;;;8.55;2.70;;;;;;;19.57;100.00;97237.34;4993856;28;20057;-72
2022/06/11 07:11:52;;;;;;;11.27;2.80;;;;;;;19.74;100.00;97250.44;4996438;28;20069;-74
2022/06/11 07:14:18;;;;;;;5.78;2.50;;;;;;;19.93;100.00;97242.38;4995576;28;20033;-73
2022/06/11 07:16:52;;;;;;;6.45;2.55;;;;;;;20.12;100.00;97237.78;4997146;28;20034;-72
2022/06/11 07:19:32;;;;;;;9.90;2.63;;;;;;;20.03;100.00;97242.25;4995353;28;20117;-72
2022/06/11 07:22:03;;;;;;;10.75;3.22;;;;;;;20.00;100.00;97242.84;4995868;28;20053;-73
2022/06/11 07:24:32;;;;;;;11.00;2.97;;;;;;;19.92;100.00;97240.75;4993924;28;20072;-72
2022/06/11 07:27:04;;;;;;;9.48;3.08;;;;;;;19.65;100.00;97236.69;4995451;28;20125;-72
2022/06/11 07:29:35;;;;;;;15.25;3.30;;;;;;;19.80;100.00;97235.72;4995286;28;20033;-71
2022/06/11 07:32:07;;;;;;;6.35;2.60;;;;;;;19.65;100.00;97235.91;4996944;28;20058;-72
2022/06/11 07:34:35;;;;;;;9.25;3.28;;;;;;;19.74;100.00;97224.09;4994477;28;20092;-72
2022/06/11 07:37:01;;;;;;;7.93;2.22;;;;;;;19.82;100.00;97224.56;4995038;28;20049;-74
2022/06/11 07:39:27;;;;;;;13.68;2.58;;;;;;;19.64;100.00;97226.13;4993801;28;20485;-72
2022/06/11 07:41:53;;;;;;;8.27;2.20;;;;;;;19.52;100.00;97229.19;4994804;28;20117;-72
2022/06/11 07:44:18;;;;;;;15.32;2.80;;;;;;;20.26;100.00;97224.31;4993550;28;20057;-74
2022/06/11 07:46:44;;;;;;;8.25;2.17;;;;;;;20.76;100.00;97228.22;4983018;28;20093;-73
2022/06/11 07:49:09;;;;;;;7.90;2.42;;;;;;;21.10;100.00;97222.53;4980150;28;20046;-74
2022/06/11 07:51:35;;;;;;;4.28;1.92;;;;;;;21.09;100.00;97226.38;4994137;28;20041;-74
2022/06/11 07:54:01;;;;;;;8.52;2.05;;;;;;;21.05;100.00;97229.97;4992623;28;20054;-72
2022/06/11 07:56:27;;;;;;;4.22;1.83;;;;;;;21.23;100.00;97218.22;4993942;28;20041;-73
2022/06/11 07:58:55;;;;;;;5.68;2.20;;;;;;;21.56;100.00;97223.69;4974347;28;20038;-73
2022/06/11 08:01:21;;;;;;;3.25;1.60;;;;;;;21.11;100.00;97229.59;4999318;28;20045;-73
2022/06/11 08:03:47;;;;;;;5.15;1.50;;;;;;;21.42;100.00;97224.47;4998296;28;20037;-72
2022/06/11 08:06:12;;;;;;;5.45;2.08;;;;;;;21.64;100.00;97231.97;4999065;28;20061;-74
2022/06/11 08:08:38;;;;;;;4.55;1.50;;;;;;;21.32;100.00;97230.09;4995418;28;20528;-73
2022/06/11 08:11:05;;;;;;;4.60;1.45;;;;;;;21.55;100.00;97239.19;4999084;28;20054;-74
2022/06/11 08:13:31;;;;;;;5.20;1.38;;;;;;;21.56;100.00;97231.84;4995672;28;20042;-74
2022/06/11 08:15:58;;;;;;;5.03;1.60;;;;;;;21.87;100.00;97235.63;4997860;28;20041;-72
2022/06/11 08:18:25;;;;;;;5.05;2.10;;;;;;;22.12;100.00;97239.78;4997907;28;20119;-72
2022/06/11 08:20:53;;;;;;;4.35;1.70;;;;;;;22.12;100.00;97230.78;4998537;28;20108;-72
2022/06/11 08:23:21;;;;;;;6.70;1.63;;;;;;;21.33;100.00;97237.16;4996290;28;20096;-75
2022/06/11 08:25:47;;;;;;;4.63;1.90;;;;;;;21.08;100.00;97234.81;4997725;28;20046;-73
2022/06/11 08:28:14;;;;;;;4.57;1.25;;;;;;;21.35;100.00;97228.69;4997285;28;20038;-72
2022/06/11 08:30:40;;;;;;;5.32;1.70;;;;;;;21.33;99.57;97242.59;4997559;28;20434;-74
2022/06/11 08:33:06;;;;;;;2.95;1.27;;;;;;;21.81;100.00;97233.28;4998181;28;20042;-74
2022/06/11 08:35:33;;;;;;;6.00;1.73;;;;;;;21.84;100.00;97230.75;4997187;28;20070;-75
2022/06/11 08:38:00;;;;;;;8.27;1.60;;;;;;;22.39;100.00;97236.19;4998765;28;20046;-72
2022/06/11 08:40:36;;;;;;;7.75;2.10;;;;;;;22.15;100.00;97238.34;4977651;28;20045;-72
2022/06/11 08:43:15;;;;;;;5.38;1.75;;;;;;;22.26;100.00;97237.03;4998066;28;20054;-74
2022/06/11 08:45:50;;;;;;;3.90;1.50;;;;;;;22.45;100.00;97239.63;4981809;28;20060;-72
2022/06/11 08:48:30;;;;;;;4.90;1.52;;;;;;;22.70;99.76;97236.31;4996904;28;20038;-72
2022/06/11 08:51:17;;;;;;;5.93;1.52;;;;;;;22.48;100.00;97239.00;4997470;28;20045;-73
2022/06/11 08:53:42;;;;;;;5.72;1.63;;;;;;;22.66;100.00;97250.91;4982798;28;20563;-75
2022/06/11 08:56:19;;;;;;;7.43;1.65;;;;;;;22.35;100.00;97237.13;4996613;28;20082;-72
2022/06/11 08:59:09;;;;;;;8.38;1.58;;;;;;;21.79;98.82;97249.94;4997040;28;20042;-74
2022/06/11 09:02:00;;;;;;;3.47;1.20;;;;;;;22.25;98.11;97240.84;4995892;28;20523;-72
2022/06/11 09:04:52;;;;;;;4.13;1.05;;;;;;;22.38;98.17;97234.59;4998678;28;20030;-72
2022/06/11 09:07:34;;;;;;;6.63;1.02;;;;;;;22.29;97.79;97236.44;4995275;28;20057;-73
2022/06/11 09:10:15;;;;;;;5.63;1.48;;;;;;;21.74;100.00;97241.84;4995988;28;20042;-73
2022/06/11 09:12:50;;;;;;;4.30;1.40;;;;;;;21.74;100.00;97236.41;4995774;28;20507;-73
2022/06/11 09:15:29;;;;;;;6.70;1.33;;;;;;;21.74;100.00;97236.41;4994962;28;20097;-74
2022/06/11 09:18:20;;;;;;;7.57;1.30;;;;;;;21.34;100.00;97227.88;4996120;28;20571;-74
2022/06/11 09:21:08;;;;;;;8.00;1.98;;;;;;;21.94;100.00;97237.91;4998123;28;20038;-72
2022/06/11 09:24:02;;;;;;;4.75;1.10;;;;;;;22.69;99.21;97232.00;4995867;28;20049;-73
2022/06/11 09:26:36;;;;;;;6.30;1.48;;;;;;;22.37;97.65;97235.69;4995778;28;20045;-72
2022/06/11 09:29:20;;;;;;;4.35;1.30;;;;;;;22.03;99.07;97238.84;4995571;28;20046;-74
2022/06/11 09:31:55;;;;;;;3.22;1.40;;;;;;;22.54;100.00;97237.78;4996589;28;20046;-73
2022/06/11 09:34:40;;;;;;;5.25;1.30;;;;;;;22.98;95.28;97231.63;4996622;28;20045;-72
2022/06/11 09:37:35;;;;;;;3.95;1.60;;;;;;;23.38;100.00;97239.09;4996622;28;20050;-73
2022/06/11 09:40:34;;;;;;;4.93;1.58;;;;;;;22.46;100.00;97233.06;4997830;28;20053;-73
2022/06/11 09:42:59;;;;;;;5.03;1.50;;;;;;;22.60;100.00;97236.56;4996551;28;20137;-72
2022/06/11 09:45:31;;;;;;;3.83;1.27;;;;;;;22.39;96.32;97235.38;4994343;28;20604;-72
2022/06/11 09:48:04;;;;;;;3.03;0.88;;;;;;;22.61;90.83;97238.19;4996042;28;20037;-72
2022/06/11 09:50:32;;;;;;;5.03;1.20;;;;;;;23.47;92.63;97240.75;4997484;28;20095;-73
2022/06/11 09:53:17;;;;;;;5.30;1.30;;;;;;;22.97;93.33;97238.19;4995485;28;20466;-72
2022/06/11 09:56:02;;;;;;;3.65;1.10;;;;;;;23.53;90.00;97233.25;4996087;28;20044;-73
2022/06/11 09:58:42;;;;;;;3.42;0.98;;;;;;;24.04;85.97;97240.88;4996170;28;20046;-73
2022/06/11 10:01:16;;;;;;;0.85;0.40;;;;;;;24.35;79.95;97229.09;4996201;28;20049;-72
2022/06/11 10:03:53;;;;;;;2.35;0.50;;;;;;;24.59;72.99;97234.97;4995610;28;20333;-72
2022/06/11 10:07:00;;;;;;;3.00;1.00;;;;;;;24.49;77.74;97239.91;4997729;28;20058;-74
2022/06/11 10:10:01;;;;;;;5.50;1.00;;;;;;;23.30;86.80;97238.75;4993818;28;20089;-74
2022/06/11 10:12:43;;;;;;;5.28;1.05;;;;;;;23.20;90.97;97238.19;4993048;28;20038;-73
2022/06/11 10:15:20;;;;;;;3.40;1.00;;;;;;;22.95;88.42;97251.31;5000420;28;20042;-73
2022/06/11 10:17:45;;;;;;;3.10;1.30;;;;;;;23.34;88.05;97255.28;4996804;28;20116;-72
2022/06/11 10:20:25;;;;;;;8.55;1.10;;;;;;;23.56;87.76;97249.81;4994054;28;20315;-72
2022/06/11 10:23:12;;;;;;;6.25;1.40;;;;;;;22.82;94.19;97246.72;4996258;28;20034;-72
2022/06/11 10:25:40;;;;;;;5.68;1.60;;;;;;;22.09;100.00;97247.75;4981017;28;20076;-73
2022/06/11 10:28:12;;;;;;;6.10;1.50;;;;;;;22.33;100.00;97251.03;4994088;28;20043;-72
2022/06/11 10:30:56;;;;;;;7.22;1.35;;;;;;;23.08;97.57;97253.19;4992381;28;20882;-74
2022/06/11 10:33:32;;;;;;;4.43;1.50;;;;;;;23.19;97.22;97242.03;4996260;28;20052;-72
2022/06/11 10:36:07;;;;;;;5.65;1.42;;;;;;;23.31;96.36;97243.09;4998580;28;20036;-76
2022/06/11 10:39:11;;;;;;;3.83;1.27;;;;;;;22.99;97.28;97238.69;4995746;28;20230;-74
2022/06/11 10:41:49;;;;;;;8.63;1.88;;;;;;;23.19;96.67;97233.84;4974385;28;20085;-72
2022/06/11 10:44:19;;;;;;;6.65;1.98;;;;;;;22.77;94.78;97246.81;4993508;28;20057;-75
2022/06/11 10:46:45;;;;;;;5.07;1.43;;;;;;;22.54;95.31;97251.41;4992823;28;20049;-73
2022/06/11 10:49:15;;;;;;;4.25;1.27;;;;;;;22.87;93.85;97235.69;4995606;28;20816;-74
2022/06/11 10:51:44;;;;;;;7.78;1.40;;;;;;;23.24;91.31;97233.72;4996783;28;20133;-72
2022/06/11 10:54:16;;;;;;;3.45;1.20;;;;;;;23.97;90.80;97237.84;4994687;28;20041;-72
2022/06/11 10:56:47;;;;;;;6.03;1.50;;;;;;;24.49;88.01;97237.19;4995007;28;20041;-73
2022/06/11 10:59:27;;;;;;;4.35;1.20;;;;;;;24.18;87.05;97235.31;4993659;28;20571;-72
2022/06/11 11:02:02;;;;;;;10.20;1.70;;;;;;;24.90;87.49;97232.06;4993059;28;20065;-73
2022/06/11 11:04:28;;;;;;;5.57;1.30;;;;;;;24.65;85.53;97233.66;4994825;28;20487;-72
2022/06/11 11:07:07;;;;;;;5.65;1.88;;;;;;;25.43;86.86;97225.41;4997367;28;20054;-70
2022/06/11 11:09:33;;;;;;;4.53;1.58;;;;;;;25.36;83.02;97224.28;4994411;28;20045;-72
2022/06/11 11:12:04;;;;;;;6.20;1.33;;;;;;;25.52;85.22;97215.22;4993969;28;20042;-73
2022/06/11 11:14:41;;;;;;;7.40;1.42;;;;;;;25.53;80.53;97219.59;4995622;28;20068;-73
2022/06/11 11:17:29;;;;;;;5.68;1.48;;;;;;;26.14;76.56;97219.34;4994055;28;20081;-71
2022/06/11 11:20:30;;;;;;;5.05;1.20;;;;;;;27.05;65.45;97219.75;4995994;28;20388;-72
2022/06/11 11:23:04;;;;;;;6.53;1.58;;;;;;;28.22;63.71;97204.53;4993074;28;20280;-74
2022/06/11 11:25:35;;;;;;;4.53;1.38;;;;;;;28.19;67.31;97207.19;4996424;28;20066;-73
2022/06/11 11:28:01;;;;;;;6.68;2.13;;;;;;;28.51;66.99;97205.44;5000535;28;20042;-73
2022/06/11 11:30:35;;;;;;;12.02;1.70;;;;;;;29.30;53.74;97198.31;4992104;28;20081;-75
2022/06/11 11:33:19;;;;;;;6.25;1.65;;;;;;;29.13;52.24;97202.19;4995478;28;20493;-72
2022/06/11 11:35:44;;;;;;;3.13;1.30;;;;;;;32.47;41.02;97206.25;5001045;28;20037;-73
2022/06/11 11:38:21;;;;;;;3.38;1.20;;;;;;;32.41;38.54;97197.44;4996236;28;20042;-75
2022/06/11 11:40:57;;;;;;;6.15;1.20;;;;;;;30.83;43.99;97211.53;4998525;28;20081;-74
2022/06/11 11:43:24;;;;;;;3.33;1.20;;;;;;;29.20;52.29;97209.03;4998619;28;20047;-73
2022/06/11 11:45:59;;;;;;;5.45;1.02;;;;;;;28.47;54.06;97208.06;4999081;28;20097;-72
2022/06/11 11:48:32;;;;;;;3.97;1.20;;;;;;;28.51;59.93;97214.50;4998152;28;20511;-73